createdAt,value
2022-11-16T00:00:51.020Z,44.75
2022-11-16T00:03:41.275Z,57.80
2022-11-16T00:06:31.597Z,57.53
2022-11-16T00:09:23.977Z,56.15
2022-11-16T00:12:13.384Z,58.22
2022-11-16T00:15:02.824Z,56.70
2022-11-16T00:17:53.742Z,55.35
2022-11-16T00:20:43.194Z,55.13
2022-11-16T00:23:32.897Z,55.80
2022-11-16T00:26:23.166Z,54.30
2022-11-16T00:29:16.621Z,55.22
2022-11-16T00:32:06.875Z,52.58
2022-11-16T00:34:57.804Z,53.10
2022-11-16T00:37:48.433Z,52.53
2022-11-16T00:40:38.050Z,53.88
2022-11-16T00:43:28.914Z,51.70
2022-11-16T00:46:18.518Z,52.55
2022-11-16T00:49:08.252Z,49.03
2022-11-16T00:51:59.203Z,46.85
2022-11-16T00:54:49.124Z,47.33
2022-11-16T00:57:38.565Z,48.47
2022-11-16T01:00:28.107Z,47.38
2022-11-16T01:03:17.672Z,46.20
2022-11-16T01:06:15.028Z,53.20
2022-11-16T01:09:05.932Z,43.92
2022-11-16T01:12:10.645Z,44.88
2022-11-16T01:15:00.149Z,44.28
2022-11-16T01:17:50.102Z,49.90
2022-11-16T01:20:42.536Z,39.85
2022-11-16T01:23:31.724Z,40.30
2022-11-16T01:26:22.514Z,41.08
2022-11-16T01:29:11.858Z,39.90
2022-11-16T01:32:06.584Z,40.65
2022-11-16T01:34:56.475Z,44.42
2022-11-16T01:40:39.808Z,37.55
2022-11-16T01:43:30.615Z,47.08
2022-11-16T01:46:26.698Z,46.03
2022-11-16T01:49:20.550Z,43.38
2022-11-16T01:52:18.026Z,42.20
2022-11-16T01:55:09.040Z,42.78
2022-11-16T01:58:18.642Z,40.53
2022-11-16T02:01:12.699Z,42.78
2022-11-16T02:04:12.290Z,41.85
2022-11-16T02:07:18.129Z,45.72
2022-11-16T02:10:20.651Z,47.43
2022-11-16T02:13:29.527Z,44.08
2022-11-16T02:16:34.579Z,45.63
2022-11-16T02:20:14.925Z,43.65
2022-11-16T02:23:53.150Z,41.00
2022-11-16T02:27:31.739Z,41.45
2022-11-16T02:30:23.622Z,40.83
2022-11-16T02:33:18.201Z,44.92
2022-11-16T02:36:13.144Z,42.05
2022-11-16T02:39:08.226Z,43.95
2022-11-16T02:42:00.828Z,41.33
2022-11-16T02:44:55.546Z,42.97
2022-11-16T02:47:48.232Z,40.38
2022-11-16T02:50:40.380Z,39.50
2022-11-16T02:53:33.738Z,44.45
2022-11-16T02:56:24.494Z,44.60
2022-11-16T02:59:17.797Z,43.85
2022-11-16T03:02:26.070Z,44.28
2022-11-16T03:05:32.133Z,43.08
2022-11-16T03:08:31.905Z,39.95
2022-11-16T03:11:42.406Z,41.03
2022-11-16T03:14:40.020Z,42.28
2022-11-16T03:17:33.972Z,42.20
2022-11-16T03:20:29.312Z,39.50
2022-11-16T03:23:18.913Z,37.65
2022-11-16T03:26:13.223Z,39.60
2022-11-16T03:29:09.736Z,37.72
2022-11-16T03:32:10.135Z,39.70
2022-11-16T03:35:07.990Z,37.30
2022-11-16T03:38:01.938Z,38.25
2022-11-16T03:40:52.576Z,36.65
2022-11-16T03:43:44.886Z,36.90
2022-11-16T03:46:35.706Z,37.70
2022-11-16T03:49:25.690Z,36.20
2022-11-16T03:52:18.511Z,35.85
2022-11-16T03:55:11.368Z,37.15
2022-11-16T03:58:01.309Z,33.45
2022-11-16T04:00:50.831Z,34.55
2022-11-16T04:03:40.167Z,34.40
2022-11-16T04:06:49.429Z,33.60
2022-11-16T04:09:55.936Z,32.42
2022-11-16T04:13:05.202Z,29.33
2022-11-16T04:16:12.360Z,29.83
2022-11-16T04:19:19.419Z,28.77
2022-11-16T04:22:35.012Z,28.88
2022-11-16T04:25:28.622Z,25.30
2022-11-16T04:28:21.945Z,24.25
2022-11-16T04:31:35.749Z,23.60
2022-11-16T04:34:47.177Z,25.50
2022-11-16T04:37:56.423Z,26.15
2022-11-16T04:40:53.147Z,23.50
2022-11-16T04:43:45.784Z,25.43
2022-11-16T04:46:52.357Z,24.83
2022-11-16T04:49:41.804Z,24.02
2022-11-16T04:52:31.430Z,26.90
2022-11-16T04:55:21.310Z,25.10
2022-11-16T04:58:12.779Z,23.40
2022-11-16T05:01:03.852Z,22.58
2022-11-16T05:03:53.546Z,25.23
2022-11-16T05:06:43.001Z,23.88
2022-11-16T05:09:32.403Z,25.13
2022-11-16T05:12:24.577Z,22.70
2022-11-16T05:15:19.924Z,19.73
2022-11-16T05:18:11.973Z,19.63
2022-11-16T05:21:02.848Z,17.50
2022-11-16T05:24:15.138Z,17.58
2022-11-16T05:27:06.694Z,18.48
2022-11-16T05:29:56.311Z,18.63
2022-11-16T05:32:46.729Z,18.98
2022-11-16T05:35:39.525Z,19.98
2022-11-16T05:38:29.226Z,20.05
2022-11-16T05:41:21.435Z,18.23
2022-11-16T05:44:11.123Z,19.05
2022-11-16T05:47:01.388Z,18.77
2022-11-16T05:49:51.237Z,19.50
2022-11-16T05:55:36.269Z,19.48
2022-11-16T05:58:25.754Z,20.77
2022-11-16T06:01:15.965Z,22.67
2022-11-16T06:04:05.299Z,21.67
2022-11-16T06:06:55.390Z,21.92
2022-11-16T06:09:52.000Z,21.48
2022-11-16T06:12:43.999Z,24.77
2022-11-16T06:15:33.263Z,18.15
2022-11-16T06:18:23.316Z,20.20
2022-11-16T06:21:14.389Z,20.35
2022-11-16T06:24:09.001Z,22.02
2022-11-16T06:27:00.553Z,21.08
2022-11-16T06:29:50.244Z,21.90
2022-11-16T06:32:40.126Z,18.50
2022-11-16T06:35:30.806Z,19.92
2022-11-16T06:38:20.800Z,18.08
2022-11-16T06:41:12.349Z,18.55
2022-11-16T06:44:08.325Z,19.65
2022-11-16T06:47:00.768Z,18.90
2022-11-16T06:49:50.538Z,20.75
2022-11-16T06:52:43.958Z,19.95
2022-11-16T06:55:33.895Z,20.15
2022-11-16T06:58:25.833Z,21.35
2022-11-16T07:01:16.562Z,20.42
2022-11-16T07:04:12.016Z,20.60
2022-11-16T07:07:03.823Z,22.23
2022-11-16T07:09:55.227Z,21.02
2022-11-16T07:12:44.654Z,20.38
2022-11-16T07:15:36.196Z,20.77
2022-11-16T07:18:27.244Z,19.38
2022-11-16T07:21:18.613Z,21.05
2022-11-16T07:24:08.536Z,20.25
2022-11-16T07:26:58.501Z,21.77
2022-11-16T07:29:51.020Z,20.10
2022-11-16T07:33:00.957Z,21.15
2022-11-16T07:36:29.842Z,20.10
2022-11-16T07:39:21.930Z,22.65
2022-11-16T07:42:11.904Z,19.85
2022-11-16T07:45:27.428Z,20.92
2022-11-16T07:48:21.038Z,21.10
2022-11-16T07:51:38.562Z,20.17
2022-11-16T07:54:48.313Z,20.38
2022-11-16T07:57:38.395Z,20.48
2022-11-16T08:00:31.081Z,20.15
2022-11-16T08:03:30.167Z,20.15
2022-11-16T08:06:25.093Z,19.55
2022-11-16T08:09:17.268Z,20.83
2022-11-16T08:12:06.936Z,20.88
2022-11-16T08:14:56.956Z,22.25
2022-11-16T08:17:46.506Z,23.67
2022-11-16T08:20:36.701Z,21.73
2022-11-16T08:23:26.409Z,21.35
2022-11-16T08:26:19.396Z,22.27
2022-11-16T08:29:15.323Z,22.50
2022-11-16T08:32:10.259Z,23.02
2022-11-16T08:34:59.751Z,22.38
2022-11-16T08:37:49.103Z,24.15
2022-11-16T08:40:38.707Z,25.05
2022-11-16T08:43:30.481Z,21.52
2022-11-16T08:46:19.942Z,22.60
2022-11-16T08:49:14.243Z,21.38
2022-11-16T08:52:03.854Z,22.40
2022-11-16T08:54:54.439Z,21.50
2022-11-16T08:57:44.120Z,21.45
2022-11-16T09:00:37.177Z,23.25
2022-11-16T09:03:26.544Z,27.73
2022-11-16T09:06:16.618Z,21.15
2022-11-16T09:09:06.414Z,21.00
2022-11-16T09:11:57.163Z,21.00
2022-11-16T09:14:46.454Z,22.38
2022-11-16T09:17:37.164Z,20.90
2022-11-16T09:20:27.468Z,19.95
2022-11-16T09:23:20.929Z,21.17
2022-11-16T09:26:14.702Z,18.90
2022-11-16T09:29:04.704Z,18.58
2022-11-16T09:31:53.924Z,18.90
2022-11-16T09:34:44.659Z,21.05
2022-11-16T09:37:33.950Z,24.75
2022-11-16T09:40:23.802Z,22.98
2022-11-16T09:43:28.299Z,22.30
2022-11-16T09:46:28.032Z,31.70
2022-11-16T09:49:22.626Z,29.77
2022-11-16T09:52:23.542Z,24.92
2022-11-16T09:55:26.137Z,17.85
2022-11-16T09:58:21.333Z,18.45
2022-11-16T10:01:26.274Z,23.98
2022-11-16T10:04:21.576Z,21.40
2022-11-16T10:07:17.972Z,22.05
2022-11-16T10:10:15.628Z,18.13
2022-11-16T10:13:16.110Z,21.27
2022-11-16T10:16:14.806Z,24.40
2022-11-16T10:19:16.545Z,18.50
2022-11-16T10:22:19.869Z,17.67
2022-11-16T10:25:17.444Z,18.98
2022-11-16T10:28:28.807Z,19.58
2022-11-16T10:31:30.842Z,29.30
2022-11-16T10:34:26.393Z,22.08
2022-11-16T10:37:16.127Z,19.17
2022-11-16T10:40:22.302Z,25.55
2022-11-16T10:43:16.551Z,26.58
2022-11-16T10:46:15.619Z,23.40
2022-11-16T10:49:12.111Z,18.83
2022-11-16T10:52:01.534Z,20.88
2022-11-16T10:54:51.315Z,17.60
2022-11-16T11:00:45.575Z,25.33
2022-11-16T11:03:35.464Z,22.27
2022-11-16T11:06:27.845Z,24.83
2022-11-16T11:09:29.696Z,22.88
2022-11-16T11:12:41.883Z,22.92
2022-11-16T11:15:31.506Z,18.73
2022-11-16T11:18:30.208Z,23.75
2022-11-16T11:21:24.251Z,34.30
2022-11-16T11:24:43.452Z,45.97
2022-11-16T11:27:35.056Z,51.95
2022-11-16T11:30:25.129Z,49.30
2022-11-16T11:33:17.257Z,57.08
2022-11-16T11:36:14.150Z,61.50
2022-11-16T11:39:08.106Z,70.68
2022-11-16T11:42:22.228Z,93.57
2022-11-16T11:45:16.663Z,71.82
2022-11-16T11:48:22.548Z,67.63
2022-11-16T11:51:23.354Z,39.08
2022-11-16T11:54:24.222Z,36.88
2022-11-16T11:57:20.621Z,25.70
2022-11-16T12:00:14.789Z,40.92
2022-11-16T12:03:41.196Z,46.65
2022-11-16T12:06:43.749Z,50.53
2022-11-16T12:09:44.321Z,59.10
2022-11-16T12:12:52.691Z,55.72
2022-11-16T12:16:00.247Z,56.17
2022-11-16T12:19:21.177Z,55.70
2022-11-16T12:22:31.266Z,48.03
2022-11-16T12:25:27.510Z,38.35
2022-11-16T12:28:35.244Z,32.72
2022-11-16T12:31:54.279Z,28.83
2022-11-16T12:35:02.285Z,29.45
2022-11-16T12:38:05.137Z,40.05
2022-11-16T12:41:34.214Z,44.67
2022-11-16T12:44:38.915Z,39.45
2022-11-16T12:47:44.425Z,42.33
2022-11-16T12:50:52.903Z,45.05
2022-11-16T12:54:06.275Z,42.42
2022-11-16T12:57:08.456Z,41.17
2022-11-16T13:00:09.182Z,39.60
2022-11-16T13:03:15.397Z,38.50
2022-11-16T13:06:08.778Z,47.45
2022-11-16T13:09:07.984Z,41.55
2022-11-16T13:12:01.915Z,36.10
2022-11-16T13:14:54.985Z,37.17
2022-11-16T13:20:46.276Z,29.90
2022-11-16T13:23:48.931Z,42.60
2022-11-16T13:26:46.166Z,35.78
2022-11-16T13:29:44.487Z,32.83
2022-11-16T13:32:57.432Z,33.53
2022-11-16T13:35:46.820Z,34.08
2022-11-16T13:38:53.471Z,37.47
2022-11-16T13:41:45.644Z,27.98
2022-11-16T13:44:35.967Z,29.70
2022-11-16T13:47:30.514Z,25.95
2022-11-16T13:50:23.081Z,28.17
2022-11-16T13:56:52.713Z,21.20
2022-11-16T13:59:42.386Z,26.02
2022-11-16T14:02:34.247Z,26.55
2022-11-16T14:05:41.782Z,24.08
2022-11-16T14:08:51.012Z,22.55
2022-11-16T14:11:41.575Z,31.08
2022-11-16T14:15:13.969Z,26.98
2022-11-16T14:18:33.027Z,28.02
2022-11-16T14:21:40.546Z,25.98
2022-11-16T14:24:35.124Z,20.45
2022-11-16T14:27:31.879Z,21.13
2022-11-16T14:30:26.509Z,28.35
2022-11-16T14:33:35.081Z,24.77
2022-11-16T14:36:41.404Z,21.63
2022-11-16T14:39:41.330Z,21.65
2022-11-16T14:42:48.141Z,20.55
2022-11-16T14:45:50.362Z,19.27
2022-11-16T14:48:47.156Z,18.42
2022-11-16T14:51:40.833Z,22.23
2022-11-16T14:54:39.279Z,24.08
2022-11-16T14:57:28.664Z,17.13
2022-11-16T15:00:25.906Z,14.27
2022-11-16T15:03:16.632Z,18.60
2022-11-16T15:06:08.846Z,15.73
2022-11-16T15:09:03.455Z,22.50
2022-11-16T15:12:10.960Z,14.63
2022-11-16T15:15:07.927Z,30.73
2022-11-16T15:18:13.207Z,29.98
2022-11-16T15:21:03.958Z,26.48
2022-11-16T15:24:23.631Z,25.67
2022-11-16T15:27:13.947Z,26.42
2022-11-16T15:30:15.046Z,28.17
2022-11-16T15:33:11.503Z,35.63
2022-11-16T15:36:01.083Z,30.65
2022-11-16T15:38:54.404Z,32.72
2022-11-16T15:41:44.205Z,34.25
2022-11-16T15:44:34.397Z,37.05
2022-11-16T15:47:25.621Z,40.15
2022-11-16T15:50:19.597Z,37.80
2022-11-16T15:53:36.795Z,35.78
2022-11-16T15:56:34.069Z,30.95
2022-11-16T15:59:29.265Z,28.95
2022-11-16T16:02:22.100Z,30.60
2022-11-16T16:05:23.997Z,29.70
2022-11-16T16:08:33.429Z,26.35
2022-11-16T16:11:30.921Z,26.77
2022-11-16T16:14:27.811Z,23.90
2022-11-16T16:17:26.158Z,22.35
2022-11-16T16:20:19.966Z,20.33
2022-11-16T16:23:15.358Z,23.20
2022-11-16T16:26:05.551Z,31.95
2022-11-16T16:28:56.878Z,47.63
2022-11-16T16:31:46.432Z,24.75
2022-11-16T16:34:39.258Z,26.33
2022-11-16T16:37:33.481Z,26.17
2022-11-16T16:40:22.988Z,28.63
2022-11-16T16:43:12.420Z,41.92
2022-11-16T16:46:05.153Z,42.00
2022-11-16T16:48:54.995Z,50.30
2022-11-16T16:51:44.391Z,61.20
2022-11-16T16:54:33.706Z,52.85
2022-11-16T16:57:23.116Z,43.25
2022-11-16T17:00:14.047Z,39.08
2022-11-16T17:03:04.927Z,42.08
2022-11-16T17:05:54.595Z,43.47
2022-11-16T17:08:43.808Z,141.07
2022-11-16T17:11:33.129Z,127.85
2022-11-16T17:14:24.614Z,75.88
2022-11-16T17:17:14.199Z,62.72
2022-11-16T17:20:06.225Z,63.58
2022-11-16T17:22:55.605Z,71.07
2022-11-16T17:25:45.207Z,72.75
2022-11-16T17:28:35.298Z,76.28
2022-11-16T17:31:25.725Z,66.10
2022-11-16T17:34:15.401Z,64.20
2022-11-16T17:37:06.252Z,70.05
2022-11-16T17:39:55.604Z,71.82
2022-11-16T17:42:45.246Z,73.40
2022-11-16T17:45:34.529Z,82.45
2022-11-16T17:48:23.803Z,122.70
2022-11-16T17:51:14.967Z,123.70
2022-11-16T17:54:06.101Z,119.10
2022-11-16T17:56:55.362Z,97.82
2022-11-16T17:59:44.755Z,116.90
2022-11-16T18:02:34.036Z,101.22
2022-11-16T18:05:23.416Z,96.95
2022-11-16T18:08:13.533Z,80.88
2022-11-16T18:11:19.683Z,100.50
2022-11-16T18:14:10.648Z,89.75
2022-11-16T18:17:00.074Z,81.50
2022-11-16T18:19:49.387Z,79.75
2022-11-16T18:22:39.030Z,101.30
2022-11-16T18:25:28.443Z,92.68
2022-11-16T18:28:20.658Z,95.95
2022-11-16T18:31:13.303Z,94.95
2022-11-16T18:34:03.179Z,93.93
2022-11-16T18:36:52.548Z,98.35
2022-11-16T18:39:41.882Z,93.38
2022-11-16T18:42:31.778Z,96.30
2022-11-16T18:45:22.785Z,103.10
2022-11-16T18:48:12.118Z,108.20
2022-11-16T18:51:01.964Z,99.22
2022-11-16T18:53:51.893Z,110.60
2022-11-16T18:56:41.383Z,139.27
2022-11-16T18:59:30.685Z,174.00
2022-11-16T19:02:21.678Z,205.75
2022-11-16T19:05:11.223Z,188.40
2022-11-16T19:08:00.534Z,194.23
2022-11-16T19:10:50.213Z,190.05
2022-11-16T19:13:40.807Z,174.80
2022-11-16T19:16:30.878Z,147.27
2022-11-16T19:19:21.812Z,145.82
2022-11-16T19:22:11.147Z,161.65
2022-11-16T19:25:05.873Z,153.23
2022-11-16T19:27:55.568Z,179.13
2022-11-16T19:30:44.922Z,192.07
2022-11-16T19:33:34.488Z,179.63
2022-11-16T19:36:26.694Z,185.60
2022-11-16T19:39:16.066Z,192.45
2022-11-16T19:42:05.988Z,196.98
2022-11-16T19:44:55.305Z,197.77
2022-11-16T19:47:44.754Z,196.40
2022-11-16T19:50:35.889Z,192.95
2022-11-16T19:53:26.990Z,203.25
2022-11-16T19:56:18.785Z,194.23
2022-11-16T19:59:08.164Z,186.30
2022-11-16T20:01:57.789Z,146.38
2022-11-16T20:04:47.134Z,148.68
2022-11-16T20:07:38.972Z,143.90
2022-11-16T20:10:32.387Z,155.35
2022-11-16T20:13:22.138Z,162.02
2022-11-16T20:16:14.346Z,161.38
2022-11-16T20:19:04.421Z,147.77
2022-11-16T20:21:55.440Z,155.68
2022-11-16T20:24:45.033Z,153.57
2022-11-16T20:27:36.073Z,156.85
2022-11-16T20:30:25.421Z,185.27
2022-11-16T20:33:15.092Z,167.05
2022-11-16T20:36:05.939Z,172.55
2022-11-16T20:38:55.985Z,150.13
2022-11-16T20:41:45.603Z,146.93
2022-11-16T20:44:36.621Z,150.13
2022-11-16T20:47:28.236Z,152.70
2022-11-16T20:50:19.530Z,132.35
2022-11-16T20:53:08.979Z,122.82
2022-11-16T20:55:59.594Z,89.80
2022-11-16T20:58:51.302Z,103.78
2022-11-16T21:01:47.858Z,115.05
2022-11-16T21:04:38.658Z,97.47
2022-11-16T21:07:30.853Z,108.20
2022-11-16T21:10:21.502Z,118.72
2022-11-16T21:13:35.533Z,126.30
2022-11-16T21:16:25.565Z,136.77
2022-11-16T21:19:17.292Z,153.70
2022-11-16T21:22:07.888Z,151.45
2022-11-16T21:24:57.912Z,156.38
2022-11-16T21:27:47.530Z,151.30
2022-11-16T21:30:41.050Z,144.27
2022-11-16T21:33:32.796Z,133.77
2022-11-16T21:36:26.491Z,141.27
2022-11-16T21:39:16.039Z,154.77
2022-11-16T21:42:06.911Z,146.45
2022-11-16T21:44:56.683Z,158.65
2022-11-16T21:47:46.460Z,150.52
2022-11-16T21:50:36.864Z,153.60
2022-11-16T21:53:27.703Z,157.10
2022-11-16T21:56:20.322Z,161.55
2022-11-16T21:59:10.035Z,154.05
2022-11-16T22:02:02.325Z,155.60
2022-11-16T22:05:09.346Z,165.70
2022-11-16T22:07:58.590Z,166.40
2022-11-16T22:10:52.635Z,150.13
2022-11-16T22:13:43.165Z,145.65
2022-11-16T22:16:32.544Z,129.43
2022-11-16T22:19:22.276Z,136.90
2022-11-16T22:22:11.695Z,137.30
2022-11-16T22:25:01.329Z,147.48
2022-11-16T22:28:19.065Z,140.43
2022-11-16T22:31:03.192Z,148.35
2022-11-16T22:33:54.725Z,130.43
2022-11-16T22:36:43.972Z,135.20
2022-11-16T22:39:33.568Z,123.93
2022-11-16T22:42:23.248Z,117.93
2022-11-16T22:45:14.728Z,119.70
2022-11-16T22:48:04.059Z,107.78
2022-11-16T22:51:05.180Z,110.13
2022-11-16T22:53:55.739Z,119.20
2022-11-16T22:56:45.377Z,129.60
2022-11-16T22:59:35.215Z,142.13
2022-11-16T23:02:26.247Z,144.63
2022-11-16T23:05:16.334Z,123.63
2022-11-16T23:08:06.410Z,125.88
2022-11-16T23:11:18.761Z,106.68
2022-11-16T23:14:31.256Z,116.60
2022-11-16T23:17:20.772Z,91.72
2022-11-16T23:20:30.379Z,94.78
2022-11-16T23:23:38.252Z,102.10
2022-11-16T23:26:45.119Z,100.75
2022-11-16T23:29:34.701Z,110.47
2022-11-16T23:32:24.215Z,96.75
2022-11-16T23:35:15.572Z,83.03
2022-11-16T23:38:07.562Z,75.15
2022-11-16T23:40:58.627Z,72.97
2022-11-16T23:43:59.819Z,69.38
2022-11-16T23:46:49.382Z,75.18
2022-11-16T23:49:39.317Z,78.78
2022-11-16T23:52:30.362Z,83.43
2022-11-16T23:55:19.863Z,74.43
2022-11-16T23:58:14.713Z,65.22
